sensor_id;sensor_type;location;lat;lon;timestamp;pressure;altitude;pressure_sealevel;temperature;humidity
72465;BME280;60471;52.150;4.508;2022-07-23T00:00:59;101730.72;;;18.24;64.77
72465;BME280;60471;52.150;4.508;2022-07-23T00:03:25;101730.00;;;18.35;64.55
72465;BME280;60471;52.150;4.508;2022-07-23T00:05:52;101733.97;;;18.42;64.32
72465;BME280;60471;52.150;4.508;2022-07-23T00:08:18;101724.19;;;18.29;64.48
72465;BME280;60471;52.150;4.508;2022-07-23T00:10:45;101731.72;;;18.36;64.34
72465;BME280;60471;52.150;4.508;2022-07-23T00:13:11;101721.34;;;18.44;64.03
72465;BME280;60471;52.150;4.508;2022-07-23T00:15:37;101720.84;;;18.52;63.49
72465;BME280;60471;52.150;4.508;2022-07-23T00:18:03;101721.03;;;18.36;64.04
72465;BME280;60471;52.150;4.508;2022-07-23T00:20:30;101709.56;;;18.34;64.06
72465;BME280;60471;52.150;4.508;2022-07-23T00:22:56;101712.63;;;18.55;63.14
72465;BME280;60471;52.150;4.508;2022-07-23T00:25:22;101711.75;;;18.54;63.33
72465;BME280;60471;52.150;4.508;2022-07-23T00:27:49;101695.59;;;18.43;63.74
72465;BME280;60471;52.150;4.508;2022-07-23T00:30:15;101695.06;;;18.51;63.41
72465;BME280;60471;52.150;4.508;2022-07-23T00:32:50;101695.44;;;18.32;63.70
72465;BME280;60471;52.150;4.508;2022-07-23T00:35:22;101698.00;;;18.34;64.05
72465;BME280;60471;52.150;4.508;2022-07-23T00:37:49;101691.88;;;18.46;63.66
72465;BME280;60471;52.150;4.508;2022-07-23T00:40:16;101680.88;;;18.50;63.21
72465;BME280;60471;52.150;4.508;2022-07-23T00:42:42;101680.72;;;18.39;63.93
72465;BME280;60471;52.150;4.508;2022-07-23T00:45:09;101689.25;;;18.32;64.26
72465;BME280;60471;52.150;4.508;2022-07-23T00:47:36;101692.50;;;18.37;63.89
72465;BME280;60471;52.150;4.508;2022-07-23T00:50:04;101692.59;;;18.35;63.90
72465;BME280;60471;52.150;4.508;2022-07-23T00:52:32;101689.84;;;18.22;64.11
72465;BME280;60471;52.150;4.508;2022-07-23T00:55:00;101686.53;;;18.19;64.06
72465;BME280;60471;52.150;4.508;2022-07-23T00:57:27;101688.00;;;18.10;64.09
72465;BME280;60471;52.150;4.508;2022-07-23T00:59:54;101685.78;;;18.17;63.82
72465;BME280;60471;52.150;4.508;2022-07-23T01:02:21;101690.66;;;18.10;64.32
72465;BME280;60471;52.150;4.508;2022-07-23T01:04:47;101684.38;;;18.11;63.65
72465;BME280;60471;52.150;4.508;2022-07-23T01:07:14;101686.47;;;17.93;64.78
72465;BME280;60471;52.150;4.508;2022-07-23T01:09:41;101677.53;;;17.80;65.30
72465;BME280;60471;52.150;4.508;2022-07-23T01:12:09;101671.41;;;17.92;64.11
72465;BME280;60471;52.150;4.508;2022-07-23T01:14:35;101671.94;;;18.24;62.68
72465;BME280;60471;52.150;4.508;2022-07-23T01:17:01;101669.16;;;18.26;62.89
72465;BME280;60471;52.150;4.508;2022-07-23T01:19:27;101674.25;;;18.16;63.08
72465;BME280;60471;52.150;4.508;2022-07-23T01:21:55;101670.94;;;18.13;63.05
72465;BME280;60471;52.150;4.508;2022-07-23T01:24:24;101679.69;;;17.88;64.39
72465;BME280;60471;52.150;4.508;2022-07-23T01:26:50;101680.09;;;17.82;64.33
72465;BME280;60471;52.150;4.508;2022-07-23T01:29:17;101677.44;;;17.82;64.79
72465;BME280;60471;52.150;4.508;2022-07-23T01:31:43;101673.13;;;17.79;64.75
72465;BME280;60471;52.150;4.508;2022-07-23T01:34:10;101674.06;;;17.92;64.58
72465;BME280;60471;52.150;4.508;2022-07-23T01:36:36;101668.66;;;18.07;63.74
72465;BME280;60471;52.150;4.508;2022-07-23T01:39:06;101675.00;;;18.18;63.36
72465;BME280;60471;52.150;4.508;2022-07-23T01:41:33;101680.44;;;18.17;63.22
72465;BME280;60471;52.150;4.508;2022-07-23T01:44:00;101683.09;;;18.04;63.48
72465;BME280;60471;52.150;4.508;2022-07-23T01:46:26;101668.88;;;18.04;63.44
72465;BME280;60471;52.150;4.508;2022-07-23T01:48:52;101667.44;;;17.98;63.64
72465;BME280;60471;52.150;4.508;2022-07-23T01:51:18;101665.84;;;17.95;63.81
72465;BME280;60471;52.150;4.508;2022-07-23T01:53:45;101669.47;;;17.94;64.03
72465;BME280;60471;52.150;4.508;2022-07-23T01:56:11;101680.47;;;17.76;64.65
72465;BME280;60471;52.150;4.508;2022-07-23T01:58:37;101686.03;;;17.58;65.50
72465;BME280;60471;52.150;4.508;2022-07-23T02:01:03;101690.78;;;17.53;65.74
72465;BME280;60471;52.150;4.508;2022-07-23T02:03:30;101685.56;;;17.52;65.86
72465;BME280;60471;52.150;4.508;2022-07-23T02:05:56;101682.09;;;17.78;64.57
72465;BME280;60471;52.150;4.508;2022-07-23T02:08:22;101683.63;;;17.82;64.40
72465;BME280;60471;52.150;4.508;2022-07-23T02:10:48;101673.63;;;17.72;64.63
72465;BME280;60471;52.150;4.508;2022-07-23T02:13:17;101682.47;;;17.58;65.25
72465;BME280;60471;52.150;4.508;2022-07-23T02:15:45;101676.41;;;17.42;65.73
72465;BME280;60471;52.150;4.508;2022-07-23T02:18:13;101681.56;;;17.59;65.57
72465;BME280;60471;52.150;4.508;2022-07-23T02:20:40;101679.53;;;17.62;64.93
72465;BME280;60471;52.150;4.508;2022-07-23T02:23:06;101681.88;;;17.67;64.62
72465;BME280;60471;52.150;4.508;2022-07-23T02:25:34;101681.34;;;17.62;64.93
72465;BME280;60471;52.150;4.508;2022-07-23T02:28:02;101682.97;;;17.50;65.65
72465;BME280;60471;52.150;4.508;2022-07-23T02:30:29;101680.59;;;17.60;65.37
72465;BME280;60471;52.150;4.508;2022-07-23T02:32:55;101686.28;;;17.68;64.74
72465;BME280;60471;52.150;4.508;2022-07-23T02:35:22;101680.97;;;17.82;64.11
72465;BME280;60471;52.150;4.508;2022-07-23T02:37:48;101686.78;;;17.75;64.61
72465;BME280;60471;52.150;4.508;2022-07-23T02:40:15;101686.41;;;17.81;64.37
72465;BME280;60471;52.150;4.508;2022-07-23T02:42:41;101680.84;;;17.84;64.26
72465;BME280;60471;52.150;4.508;2022-07-23T02:45:08;101689.63;;;17.86;64.32
72465;BME280;60471;52.150;4.508;2022-07-23T02:47:35;101686.41;;;17.81;64.60
72465;BME280;60471;52.150;4.508;2022-07-23T02:50:01;101685.63;;;17.79;64.16
72465;BME280;60471;52.150;4.508;2022-07-23T02:52:27;101685.16;;;17.72;64.64
72465;BME280;60471;52.150;4.508;2022-07-23T02:54:53;101687.09;;;17.70;64.93
72465;BME280;60471;52.150;4.508;2022-07-23T02:57:20;101679.53;;;17.62;65.03
72465;BME280;60471;52.150;4.508;2022-07-23T02:59:46;101682.66;;;17.83;64.41
72465;BME280;60471;52.150;4.508;2022-07-23T03:02:12;101688.56;;;17.88;64.19
72465;BME280;60471;52.150;4.508;2022-07-23T03:04:38;101687.69;;;17.88;64.43
72465;BME280;60471;52.150;4.508;2022-07-23T03:07:08;101682.34;;;17.88;64.91
72465;BME280;60471;52.150;4.508;2022-07-23T03:09:34;101679.84;;;17.99;64.19
72465;BME280;60471;52.150;4.508;2022-07-23T03:12:00;101683.78;;;17.93;64.41
72465;BME280;60471;52.150;4.508;2022-07-23T03:14:27;101666.50;;;17.99;64.44
72465;BME280;60471;52.150;4.508;2022-07-23T03:16:53;101669.84;;;17.88;64.82
72465;BME280;60471;52.150;4.508;2022-07-23T03:19:20;101670.66;;;17.76;65.26
72465;BME280;60471;52.150;4.508;2022-07-23T03:21:46;101674.44;;;17.86;65.12
72465;BME280;60471;52.150;4.508;2022-07-23T03:24:12;101667.19;;;17.88;65.01
72465;BME280;60471;52.150;4.508;2022-07-23T03:26:38;101678.81;;;17.87;64.94
72465;BME280;60471;52.150;4.508;2022-07-23T03:29:05;101683.22;;;17.88;64.84
72465;BME280;60471;52.150;4.508;2022-07-23T03:31:31;101679.50;;;17.91;64.88
72465;BME280;60471;52.150;4.508;2022-07-23T03:33:58;101678.97;;;17.72;65.79
72465;BME280;60471;52.150;4.508;2022-07-23T03:36:24;101676.00;;;17.76;65.43
72465;BME280;60471;52.150;4.508;2022-07-23T03:38:51;101683.91;;;17.63;66.06
72465;BME280;60471;52.150;4.508;2022-07-23T03:41:19;101682.69;;;17.55;66.50
72465;BME280;60471;52.150;4.508;2022-07-23T03:43:46;101673.44;;;17.60;66.28
72465;BME280;60471;52.150;4.508;2022-07-23T03:46:12;101677.41;;;17.67;65.87
72465;BME280;60471;52.150;4.508;2022-07-23T03:48:39;101680.69;;;17.73;65.69
72465;BME280;60471;52.150;4.508;2022-07-23T03:51:05;101682.94;;;17.64;65.69
72465;BME280;60471;52.150;4.508;2022-07-23T03:53:31;101691.44;;;17.57;65.92
72465;BME280;60471;52.150;4.508;2022-07-23T03:55:57;101701.84;;;17.47;66.53
72465;BME280;60471;52.150;4.508;2022-07-23T03:58:24;101690.81;;;17.39;66.23
72465;BME280;60471;52.150;4.508;2022-07-23T04:00:50;101700.63;;;17.38;66.42
72465;BME280;60471;52.150;4.508;2022-07-23T04:03:16;101696.88;;;17.55;66.17
72465;BME280;60471;52.150;4.508;2022-07-23T04:05:42;101696.59;;;17.74;65.22
72465;BME280;60471;52.150;4.508;2022-07-23T04:08:09;101700.69;;;17.65;65.08
72465;BME280;60471;52.150;4.508;2022-07-23T04:10:35;101701.44;;;17.67;65.40
72465;BME280;60471;52.150;4.508;2022-07-23T04:13:01;101702.69;;;17.62;65.96
72465;BME280;60471;52.150;4.508;2022-07-23T04:15:27;101707.19;;;17.61;65.85
72465;BME280;60471;52.150;4.508;2022-07-23T04:17:54;101696.97;;;17.82;65.12
72465;BME280;60471;52.150;4.508;2022-07-23T04:20:20;101701.56;;;17.80;65.24
72465;BME280;60471;52.150;4.508;2022-07-23T04:22:46;101693.94;;;17.74;64.75
72465;BME280;60471;52.150;4.508;2022-07-23T04:25:12;101703.56;;;17.62;64.96
72465;BME280;60471;52.150;4.508;2022-07-23T04:27:39;101701.34;;;17.55;65.27
72465;BME280;60471;52.150;4.508;2022-07-23T04:30:06;101702.69;;;17.62;65.50
72465;BME280;60471;52.150;4.508;2022-07-23T04:32:33;101702.28;;;17.68;65.30
72465;BME280;60471;52.150;4.508;2022-07-23T04:34:59;101698.09;;;17.78;64.94
72465;BME280;60471;52.150;4.508;2022-07-23T04:37:25;101703.06;;;17.84;65.16
72465;BME280;60471;52.150;4.508;2022-07-23T04:39:51;101696.50;;;17.76;65.79
72465;BME280;60471;52.150;4.508;2022-07-23T04:42:18;101706.38;;;17.88;65.52
72465;BME280;60471;52.150;4.508;2022-07-23T04:44:44;101704.03;;;17.83;64.98
72465;BME280;60471;52.150;4.508;2022-07-23T04:47:10;101703.94;;;17.85;64.81
72465;BME280;60471;52.150;4.508;2022-07-23T04:49:36;101704.84;;;17.98;64.82
72465;BME280;60471;52.150;4.508;2022-07-23T04:52:03;101699.00;;;18.06;64.11
72465;BME280;60471;52.150;4.508;2022-07-23T04:54:29;101691.97;;;17.90;64.90
72465;BME280;60471;52.150;4.508;2022-07-23T04:56:56;101697.44;;;18.16;64.61
72465;BME280;60471;52.150;4.508;2022-07-23T04:59:22;101701.88;;;18.30;64.21
72465;BME280;60471;52.150;4.508;2022-07-23T05:01:48;101715.97;;;18.05;65.21
72465;BME280;60471;52.150;4.508;2022-07-23T05:04:14;101716.22;;;17.87;65.68
72465;BME280;60471;52.150;4.508;2022-07-23T05:06:40;101721.66;;;17.86;65.78
72465;BME280;60471;52.150;4.508;2022-07-23T05:09:07;101714.28;;;17.89;65.46
72465;BME280;60471;52.150;4.508;2022-07-23T05:11:33;101727.94;;;17.85;65.31
72465;BME280;60471;52.150;4.508;2022-07-23T05:13:59;101715.84;;;17.79;65.61
72465;BME280;60471;52.150;4.508;2022-07-23T05:16:25;101719.63;;;17.89;65.44
72465;BME280;60471;52.150;4.508;2022-07-23T05:18:51;101725.44;;;17.96;65.32
72465;BME280;60471;52.150;4.508;2022-07-23T05:21:18;101715.22;;;18.03;65.08
72465;BME280;60471;52.150;4.508;2022-07-23T05:23:45;101718.75;;;18.03;65.42
72465;BME280;60471;52.150;4.508;2022-07-23T05:26:11;101724.00;;;18.05;65.34
72465;BME280;60471;52.150;4.508;2022-07-23T05:28:37;101724.66;;;18.08;65.64
72465;BME280;60471;52.150;4.508;2022-07-23T05:31:03;101723.84;;;18.20;65.16
72465;BME280;60471;52.150;4.508;2022-07-23T05:33:29;101723.03;;;18.33;64.82
72465;BME280;60471;52.150;4.508;2022-07-23T05:36:03;101722.97;;;18.47;64.12
72465;BME280;60471;52.150;4.508;2022-07-23T05:38:31;101728.34;;;18.47;64.34
72465;BME280;60471;52.150;4.508;2022-07-23T05:40:58;101723.72;;;18.49;64.33
72465;BME280;60471;52.150;4.508;2022-07-23T05:43:25;101729.81;;;18.51;64.06
72465;BME280;60471;52.150;4.508;2022-07-23T05:45:51;101734.78;;;18.57;63.88
72465;BME280;60471;52.150;4.508;2022-07-23T05:48:18;101730.81;;;18.63;63.75
72465;BME280;60471;52.150;4.508;2022-07-23T05:50:44;101729.06;;;18.76;63.16
72465;BME280;60471;52.150;4.508;2022-07-23T05:53:10;101731.66;;;18.90;61.86
72465;BME280;60471;52.150;4.508;2022-07-23T05:55:36;101738.50;;;18.81;61.91
72465;BME280;60471;52.150;4.508;2022-07-23T05:58:03;101730.69;;;19.04;60.58
72465;BME280;60471;52.150;4.508;2022-07-23T06:00:29;101738.22;;;19.11;60.47
72465;BME280;60471;52.150;4.508;2022-07-23T06:02:56;101735.41;;;19.13;60.20
72465;BME280;60471;52.150;4.508;2022-07-23T06:05:22;101728.88;;;19.04;60.11
72465;BME280;60471;52.150;4.508;2022-07-23T06:07:50;101725.34;;;19.04;60.38
72465;BME280;60471;52.150;4.508;2022-07-23T06:10:17;101720.63;;;18.95;60.51
72465;BME280;60471;52.150;4.508;2022-07-23T06:12:43;101729.94;;;18.89;60.94
72465;BME280;60471;52.150;4.508;2022-07-23T06:15:09;101729.00;;;18.90;61.06
72465;BME280;60471;52.150;4.508;2022-07-23T06:17:38;101722.34;;;18.96;61.10
72465;BME280;60471;52.150;4.508;2022-07-23T06:20:06;101724.50;;;19.03;60.47
72465;BME280;60471;52.150;4.508;2022-07-23T06:22:33;101728.88;;;19.17;60.26
72465;BME280;60471;52.150;4.508;2022-07-23T06:25:00;101733.69;;;19.25;60.23
72465;BME280;60471;52.150;4.508;2022-07-23T06:27:27;101725.16;;;19.32;59.84
72465;BME280;60471;52.150;4.508;2022-07-23T06:29:53;101729.16;;;19.51;58.63
72465;BME280;60471;52.150;4.508;2022-07-23T06:32:20;101732.94;;;19.61;58.77
72465;BME280;60471;52.150;4.508;2022-07-23T06:34:47;101724.91;;;19.61;59.01
72465;BME280;60471;52.150;4.508;2022-07-23T06:37:13;101728.78;;;19.57;58.32
72465;BME280;60471;52.150;4.508;2022-07-23T06:39:39;101735.50;;;19.50;58.27
72465;BME280;60471;52.150;4.508;2022-07-23T06:42:05;101731.22;;;19.60;58.06
72465;BME280;60471;52.150;4.508;2022-07-23T06:44:32;101736.78;;;19.69;57.22
72465;BME280;60471;52.150;4.508;2022-07-23T06:46:58;101745.47;;;19.60;58.07
72465;BME280;60471;52.150;4.508;2022-07-23T06:49:24;101734.97;;;19.70;57.75
72465;BME280;60471;52.150;4.508;2022-07-23T06:51:50;101746.03;;;19.65;58.15
72465;BME280;60471;52.150;4.508;2022-07-23T06:54:16;101733.69;;;19.63;58.94
72465;BME280;60471;52.150;4.508;2022-07-23T06:56:43;101736.78;;;19.69;58.39
72465;BME280;60471;52.150;4.508;2022-07-23T06:59:09;101744.06;;;19.80;58.42
72465;BME280;60471;52.150;4.508;2022-07-23T07:01:36;101755.38;;;19.84;57.77
72465;BME280;60471;52.150;4.508;2022-07-23T07:04:02;101751.13;;;19.81;57.95
72465;BME280;60471;52.150;4.508;2022-07-23T07:06:29;101755.97;;;19.76;58.71
72465;BME280;60471;52.150;4.508;2022-07-23T07:08:56;101757.94;;;19.85;58.65
72465;BME280;60471;52.150;4.508;2022-07-23T07:11:22;101752.28;;;19.90;59.16
72465;BME280;60471;52.150;4.508;2022-07-23T07:13:51;101755.66;;;20.05;58.56
72465;BME280;60471;52.150;4.508;2022-07-23T07:16:17;101758.56;;;20.02;58.78
72465;BME280;60471;52.150;4.508;2022-07-23T07:18:44;101755.16;;;20.00;58.82
72465;BME280;60471;52.150;4.508;2022-07-23T07:21:10;101759.91;;;20.07;59.01
72465;BME280;60471;52.150;4.508;2022-07-23T07:23:36;101755.69;;;19.92;59.43
72465;BME280;60471;52.150;4.508;2022-07-23T07:26:02;101762.91;;;20.15;58.54
72465;BME280;60471;52.150;4.508;2022-07-23T07:28:29;101757.72;;;20.25;58.22
72465;BME280;60471;52.150;4.508;2022-07-23T07:30:55;101762.06;;;20.15;58.29
72465;BME280;60471;52.150;4.508;2022-07-23T07:33:21;101768.38;;;20.14;58.06
72465;BME280;60471;52.150;4.508;2022-07-23T07:35:47;101768.38;;;20.14;58.53
72465;BME280;60471;52.150;4.508;2022-07-23T07:38:14;101765.66;;;20.26;58.10
72465;BME280;60471;52.150;4.508;2022-07-23T07:40:40;101755.53;;;20.43;57.44
72465;BME280;60471;52.150;4.508;2022-07-23T07:43:06;101756.44;;;20.54;57.05
72465;BME280;60471;52.150;4.508;2022-07-23T07:45:32;101756.50;;;20.66;56.87
72465;BME280;60471;52.150;4.508;2022-07-23T07:47:59;101758.03;;;20.92;55.97
72465;BME280;60471;52.150;4.508;2022-07-23T07:50:25;101760.75;;;21.03;56.05
72465;BME280;60471;52.150;4.508;2022-07-23T07:52:52;101755.53;;;21.24;54.66
72465;BME280;60471;52.150;4.508;2022-07-23T07:55:18;101765.28;;;21.25;55.06
72465;BME280;60471;52.150;4.508;2022-07-23T07:57:44;101778.34;;;21.19;54.62
72465;BME280;60471;52.150;4.508;2022-07-23T08:00:11;101773.69;;;21.09;54.39
72465;BME280;60471;52.150;4.508;2022-07-23T08:02:48;101771.47;;;21.03;54.48
72465;BME280;60471;52.150;4.508;2022-07-23T08:05:20;101772.75;;;21.22;54.60
72465;BME280;60471;52.150;4.508;2022-07-23T08:07:48;101768.66;;;21.40;54.65
72465;BME280;60471;52.150;4.508;2022-07-23T08:10:15;101775.25;;;21.58;53.92
72465;BME280;60471;52.150;4.508;2022-07-23T08:12:50;101771.69;;;21.80;52.54
72465;BME280;60471;52.150;4.508;2022-07-23T08:15:20;101770.97;;;21.67;52.87
72465;BME280;60471;52.150;4.508;2022-07-23T08:17:48;101774.63;;;21.66;53.39
72465;BME280;60471;52.150;4.508;2022-07-23T08:20:16;101776.72;;;21.74;53.10
72465;BME280;60471;52.150;4.508;2022-07-23T08:25:16;101784.16;;;21.70;52.80
72465;BME280;60471;52.150;4.508;2022-07-23T08:27:45;101783.56;;;21.78;52.50
72465;BME280;60471;52.150;4.508;2022-07-23T08:30:12;101778.75;;;21.92;52.46
72465;BME280;60471;52.150;4.508;2022-07-23T08:35:41;101785.97;;;21.81;53.20
72465;BME280;60471;52.150;4.508;2022-07-23T08:38:17;101780.38;;;21.84;52.80
72465;BME280;60471;52.150;4.508;2022-07-23T08:40:47;101776.19;;;21.91;52.97
72465;BME280;60471;52.150;4.508;2022-07-23T08:43:19;101775.47;;;22.11;52.12
72465;BME280;60471;52.150;4.508;2022-07-23T08:45:48;101782.63;;;22.33;51.14
72465;BME280;60471;52.150;4.508;2022-07-23T08:48:21;101783.44;;;22.45;51.46
72465;BME280;60471;52.150;4.508;2022-07-23T08:50:51;101785.50;;;22.52;50.80
72465;BME280;60471;52.150;4.508;2022-07-23T08:53:22;101784.25;;;22.56;50.12
72465;BME280;60471;52.150;4.508;2022-07-23T08:55:52;101790.94;;;22.73;51.09
72465;BME280;60471;52.150;4.508;2022-07-23T08:58:20;101780.69;;;22.67;50.21
72465;BME280;60471;52.150;4.508;2022-07-23T09:00:48;101790.41;;;22.59;50.90
72465;BME280;60471;52.150;4.508;2022-07-23T09:03:20;101786.81;;;22.37;51.62
72465;BME280;60471;52.150;4.508;2022-07-23T09:05:50;101790.47;;;22.36;51.68
72465;BME280;60471;52.150;4.508;2022-07-23T09:08:23;101792.09;;;22.60;50.78
72465;BME280;60471;52.150;4.508;2022-07-23T09:11:15;101799.72;;;22.43;50.35
72465;BME280;60471;52.150;4.508;2022-07-23T09:13:49;101800.81;;;22.52;50.33
72465;BME280;60471;52.150;4.508;2022-07-23T09:16:27;101796.22;;;22.64;49.54
72465;BME280;60471;52.150;4.508;2022-07-23T09:19:00;101796.03;;;22.44;50.44
72465;BME280;60471;52.150;4.508;2022-07-23T09:21:35;101791.03;;;22.51;51.01
72465;BME280;60471;52.150;4.508;2022-07-23T09:24:07;101792.91;;;22.71;51.27
72465;BME280;60471;52.150;4.508;2022-07-23T09:26:43;101792.19;;;23.01;50.22
72465;BME280;60471;52.150;4.508;2022-07-23T09:29:19;101790.34;;;23.02;49.88
72465;BME280;60471;52.150;4.508;2022-07-23T09:31:54;101785.69;;;23.04;50.04
72465;BME280;60471;52.150;4.508;2022-07-23T09:34:27;101787.84;;;23.10;49.55
72465;BME280;60471;52.150;4.508;2022-07-23T09:37:13;101789.38;;;23.03;51.07
72465;BME280;60471;52.150;4.508;2022-07-23T09:39:43;101789.16;;;22.95;51.21
72465;BME280;60471;52.150;4.508;2022-07-23T09:42:16;101793.47;;;22.86;51.05
72465;BME280;60471;52.150;4.508;2022-07-23T09:44:49;101794.47;;;23.06;51.25
72465;BME280;60471;52.150;4.508;2022-07-23T09:47:18;101796.66;;;23.12;51.61
72465;BME280;60471;52.150;4.508;2022-07-23T09:50:09;101792.63;;;23.27;50.64
72465;BME280;60471;52.150;4.508;2022-07-23T09:55:08;101789.72;;;22.98;50.29
72465;BME280;60471;52.150;4.508;2022-07-23T09:57:34;101789.22;;;23.04;51.05
72465;BME280;60471;52.150;4.508;2022-07-23T10:00:04;101796.81;;;23.20;50.83
72465;BME280;60471;52.150;4.508;2022-07-23T10:02:33;101801.06;;;23.43;50.22
72465;BME280;60471;52.150;4.508;2022-07-23T10:05:00;101801.53;;;23.49;49.31
72465;BME280;60471;52.150;4.508;2022-07-23T10:07:31;101798.66;;;23.40;50.00
72465;BME280;60471;52.150;4.508;2022-07-23T10:10:05;101804.09;;;23.50;49.65
72465;BME280;60471;52.150;4.508;2022-07-23T10:12:32;101809.06;;;23.24;49.93
72465;BME280;60471;52.150;4.508;2022-07-23T10:15:16;101803.06;;;23.00;50.98
72465;BME280;60471;52.150;4.508;2022-07-23T10:17:48;101797.16;;;22.85;50.48
72465;BME280;60471;52.150;4.508;2022-07-23T10:20:14;101796.44;;;23.04;51.67
72465;BME280;60471;52.150;4.508;2022-07-23T10:23:04;101794.59;;;23.25;51.81
72465;BME280;60471;52.150;4.508;2022-07-23T10:26:22;101793.28;;;23.20;50.53
72465;BME280;60471;52.150;4.508;2022-07-23T10:37:47;101785.09;;;23.73;48.27
72465;BME280;60471;52.150;4.508;2022-07-23T10:40:18;101788.47;;;23.44;49.16
72465;BME280;60471;52.150;4.508;2022-07-23T10:42:49;101789.50;;;23.53;49.34
72465;BME280;60471;52.150;4.508;2022-07-23T10:45:32;101782.94;;;23.66;48.95
72465;BME280;60471;52.150;4.508;2022-07-23T10:48:17;101781.97;;;23.67;49.43
72465;BME280;60471;52.150;4.508;2022-07-23T10:51:14;101784.09;;;23.74;47.42
72465;BME280;60471;52.150;4.508;2022-07-23T10:54:19;101776.97;;;23.63;48.38
72465;BME280;60471;52.150;4.508;2022-07-23T10:56:50;101780.94;;;23.17;50.22
72465;BME280;60471;52.150;4.508;2022-07-23T11:00:08;101781.00;;;23.06;50.44
72465;BME280;60471;52.150;4.508;2022-07-23T11:02:43;101786.38;;;23.48;48.44
72465;BME280;60471;52.150;4.508;2022-07-23T11:05:22;101781.97;;;23.47;48.96
72465;BME280;60471;52.150;4.508;2022-07-23T11:13:35;101783.44;;;23.81;47.67
72465;BME280;60471;52.150;4.508;2022-07-23T11:16:06;101778.88;;;23.82;47.20
72465;BME280;60471;52.150;4.508;2022-07-23T11:32:06;101781.00;;;23.78;45.54
72465;BME280;60471;52.150;4.508;2022-07-23T11:34:48;101777.63;;;23.86;45.06
72465;BME280;60471;52.150;4.508;2022-07-23T11:37:45;101774.06;;;23.85;45.21
72465;BME280;60471;52.150;4.508;2022-07-23T11:40:14;101777.91;;;23.83;45.72
72465;BME280;60471;52.150;4.508;2022-07-23T11:45:35;101769.06;;;23.50;47.14
72465;BME280;60471;52.150;4.508;2022-07-23T11:48:04;101777.00;;;23.73;47.19
72465;BME280;60471;52.150;4.508;2022-07-23T11:50:32;101764.94;;;23.67;46.39
72465;BME280;60471;52.150;4.508;2022-07-23T11:52:58;101768.72;;;23.95;46.30
72465;BME280;60471;52.150;4.508;2022-07-23T11:55:25;101760.78;;;24.03;45.80
72465;BME280;60471;52.150;4.508;2022-07-23T11:57:55;101761.53;;;24.24;45.37
72465;BME280;60471;52.150;4.508;2022-07-23T12:00:28;101751.22;;;24.49;44.63
72465;BME280;60471;52.150;4.508;2022-07-23T12:02:59;101750.19;;;24.21;43.68
72465;BME280;60471;52.150;4.508;2022-07-23T12:05:35;101744.69;;;24.42;43.96
72465;BME280;60471;52.150;4.508;2022-07-23T12:08:04;101756.28;;;24.13;44.89
72465;BME280;60471;52.150;4.508;2022-07-23T12:10:43;101752.78;;;24.32;44.41
72465;BME280;60471;52.150;4.508;2022-07-23T12:13:12;101757.91;;;24.35;43.57
72465;BME280;60471;52.150;4.508;2022-07-23T12:15:44;101759.03;;;24.33;43.69
72465;BME280;60471;52.150;4.508;2022-07-23T12:18:16;101754.31;;;24.25;42.48
72465;BME280;60471;52.150;4.508;2022-07-23T12:20:52;101756.16;;;24.24;43.18
72465;BME280;60471;52.150;4.508;2022-07-23T12:23:21;101761.47;;;24.45;43.93
72465;BME280;60471;52.150;4.508;2022-07-23T12:25:50;101750.38;;;24.68;43.51
72465;BME280;60471;52.150;4.508;2022-07-23T12:28:20;101751.63;;;24.93;42.15
72465;BME280;60471;52.150;4.508;2022-07-23T12:30:59;101757.88;;;24.83;43.87
72465;BME280;60471;52.150;4.508;2022-07-23T12:33:30;101756.78;;;24.67;43.17
72465;BME280;60471;52.150;4.508;2022-07-23T12:36:00;101745.69;;;24.70;42.73
72465;BME280;60471;52.150;4.508;2022-07-23T12:38:54;101749.94;;;24.63;43.55
72465;BME280;60471;52.150;4.508;2022-07-23T12:41:20;101747.66;;;24.48;43.65
72465;BME280;60471;52.150;4.508;2022-07-23T12:43:46;101754.06;;;24.67;44.96
72465;BME280;60471;52.150;4.508;2022-07-23T12:46:17;101737.97;;;24.84;45.56
72465;BME280;60471;52.150;4.508;2022-07-23T12:51:17;101745.53;;;24.71;47.55
72465;BME280;60471;52.150;4.508;2022-07-23T12:53:49;101736.13;;;24.95;47.95
72465;BME280;60471;52.150;4.508;2022-07-23T12:56:21;101741.16;;;25.36;46.89
72465;BME280;60471;52.150;4.508;2022-07-23T13:01:32;101734.31;;;25.79;44.86
72465;BME280;60471;52.150;4.508;2022-07-23T13:04:15;101736.16;;;25.79;45.52
72465;BME280;60471;52.150;4.508;2022-07-23T13:06:52;101731.03;;;26.03;44.76
72465;BME280;60471;52.150;4.508;2022-07-23T13:09:23;101735.41;;;26.32;44.18
72465;BME280;60471;52.150;4.508;2022-07-23T13:11:52;101737.75;;;25.99;42.91
72465;BME280;60471;52.150;4.508;2022-07-23T13:14:20;101742.69;;;25.86;45.33
72465;BME280;60471;52.150;4.508;2022-07-23T13:16:48;101744.88;;;26.00;46.13
72465;BME280;60471;52.150;4.508;2022-07-23T13:19:17;101742.00;;;26.01;44.68
72465;BME280;60471;52.150;4.508;2022-07-23T13:21:43;101738.34;;;25.93;45.33
72465;BME280;60471;52.150;4.508;2022-07-23T13:24:11;101741.91;;;25.66;46.67
72465;BME280;60471;52.150;4.508;2022-07-23T13:26:38;101741.47;;;25.61;45.95
72465;BME280;60471;52.150;4.508;2022-07-23T13:29:05;101743.44;;;25.68;45.69
72465;BME280;60471;52.150;4.508;2022-07-23T13:31:32;101738.13;;;25.86;45.31
72465;BME280;60471;52.150;4.508;2022-07-23T13:33:59;101744.72;;;26.01;44.53
72465;BME280;60471;52.150;4.508;2022-07-23T13:36:25;101745.81;;;26.09;45.57
72465;BME280;60471;52.150;4.508;2022-07-23T13:38:51;101740.97;;;26.30;44.58
72465;BME280;60471;52.150;4.508;2022-07-23T13:41:18;101734.78;;;26.20;44.41
72465;BME280;60471;52.150;4.508;2022-07-23T13:43:44;101736.53;;;26.39;43.99